Time;durP1;ratioP1;P1;durP2;ratioP2;P2;SDS_P1;SDS_P2;PMS_P1;PMS_P2;Temp;Humidity;BMP_temperature;BMP_pressure;BME280_temperature;BME280_humidity;BME280_pressure;Samples;Min_cycle;Max_cycle;Signal;HPM_P1;HPM_P2
2022/02/09 00:07:39;;;;;;;2.20;1.20;;;21.90;31.40;;;;;;5051462;28;20915;-67
2022/02/09 00:10:06;;;;;;;2.00;1.20;;;21.90;31.40;;;;;;5049674;28;20409;-67
2022/02/09 00:12:39;;;;;;;1.67;0.95;;;21.90;31.30;;;;;;5050558;28;20433;-66
2022/02/09 00:36:03;;;;;;;2.75;1.52;;;21.80;31.40;;;;;;5051532;28;20430;-66
2022/02/09 01:11:26;;;;;;;2.22;1.13;;;21.80;31.20;;;;;;5051531;28;20467;-67
2022/02/09 01:37:53;;;;;;;1.98;1.30;;;21.80;31.30;;;;;;5055033;28;20454;-66
2022/02/09 01:56:37;;;;;;;1.50;0.98;;;21.70;31.10;;;;;;5054829;28;20396;-67
2022/02/09 01:59:04;;;;;;;1.77;1.17;;;21.60;31.10;;;;;;5054494;28;20393;-67
2022/02/09 02:01:30;;;;;;;1.55;0.98;;;21.70;31.20;;;;;;5053219;28;20889;-67
2022/02/09 02:03:57;;;;;;;2.10;1.10;;;21.70;31.20;;;;;;5053115;28;20396;-66
2022/02/09 02:06:23;;;;;;;1.70;1.10;;;21.60;31.10;;;;;;5053612;28;20436;-67
2022/02/09 02:08:52;;;;;;;1.50;1.15;;;21.70;31.20;;;;;;5053106;28;20492;-66
2022/02/09 02:11:46;;;;;;;1.85;1.10;;;21.60;31.10;;;;;;5053028;28;20409;-66
2022/02/09 02:19:05;;;;;;;1.50;1.00;;;21.60;31.00;;;;;;5054141;28;20869;-66
2022/02/09 02:47:53;;;;;;;1.52;1.00;;;21.60;31.10;;;;;;5032235;28;20745;-67
2022/02/09 03:09:31;;;;;;;1.65;1.05;;;21.50;31.00;;;;;;5053132;28;20427;-67
2022/02/09 03:14:36;;;;;;;1.30;0.90;;;21.50;30.90;;;;;;5052696;28;20396;-66
2022/02/09 03:17:06;;;;;;;1.48;0.90;;;21.50;30.90;;;;;;5051895;28;20433;-67
2022/02/09 03:22:26;;;;;;;1.88;1.00;;;21.50;30.90;;;;;;5052883;28;20401;-67
2022/02/09 03:26:21;;;;;;;1.58;0.80;;;21.50;30.90;;;;;;5052870;28;20389;-66
2022/02/09 03:50:24;;;;;;;1.38;0.82;;;21.50;31.00;;;;;;5052489;28;20439;-67
2022/02/09 03:58:11;;;;;;;1.90;0.80;;;21.50;30.80;;;;;;5010327;28;20397;-68
2022/02/09 04:00:41;;;;;;;1.40;0.80;;;21.50;30.80;;;;;;5043366;28;20400;-67
2022/02/09 04:03:13;;;;;;;1.48;0.80;;;21.50;30.80;;;;;;5052262;28;20865;-67
2022/02/09 04:05:39;;;;;;;1.80;0.77;;;21.50;30.40;;;;;;5052037;28;20489;-68
2022/02/09 04:08:10;;;;;;;1.60;0.80;;;21.50;31.30;;;;;;5052150;28;20389;-68
2022/02/09 04:10:41;;;;;;;2.28;0.90;;;21.50;31.50;;;;;;5051696;28;20460;-66
2022/02/09 04:13:18;;;;;;;2.45;1.00;;;21.60;31.90;;;;;;5052046;28;20734;-65
2022/02/09 04:37:20;;;;;;;1.33;0.80;;;21.70;33.30;;;;;;5051404;28;20784;-68
2022/02/09 04:52:31;;;;;;;3.38;0.88;;;21.90;33.50;;;;;;5050772;28;20887;-69
2022/02/09 05:00:08;;;;;;;2.20;0.85;;;21.80;32.90;;;;;;5051450;28;20388;-72
2022/02/09 05:03:01;;;;;;;2.13;1.15;;;21.80;32.90;;;;;;5050870;28;20484;-69
2022/02/09 05:20:41;;;;;;;3.70;1.00;;;21.70;32.60;;;;;;5051369;28;20400;-65
2022/02/09 05:27:19;;;;;;;3.00;0.88;;;21.70;32.20;;;;;;5050835;28;20439;-65
2022/02/09 05:29:45;;;;;;;4.88;1.02;;;21.60;32.10;;;;;;5049734;28;20397;-65
2022/02/09 05:32:10;;;;;;;3.03;0.80;;;21.60;32.00;;;;;;5029931;28;20504;-65
2022/02/09 05:34:36;;;;;;;4.73;1.00;;;21.60;32.10;;;;;;5030594;28;20440;-66
2022/02/09 05:37:02;;;;;;;3.03;0.95;;;21.60;32.10;;;;;;5031081;28;21010;-69
2022/02/09 05:39:28;;;;;;;5.80;0.90;;;21.60;31.90;;;;;;5029692;28;20395;-65
2022/02/09 05:41:54;;;;;;;2.92;0.85;;;21.60;32.20;;;;;;5030932;28;20394;-66
2022/02/09 05:44:20;;;;;;;3.60;1.00;;;21.60;32.10;;;;;;5030830;28;20387;-67
2022/02/09 05:51:51;;;;;;;3.83;1.10;;;21.60;32.50;;;;;;5030914;28;20398;-67
2022/02/09 05:56:49;;;;;;;4.28;1.13;;;21.60;32.10;;;;;;5030698;28;20483;-67
2022/02/09 06:01:46;;;;;;;3.75;0.95;;;21.60;32.70;;;;;;5030880;28;20445;-67
2022/02/09 06:04:12;;;;;;;5.23;0.90;;;21.60;33.30;;;;;;5030720;28;20829;-67
2022/02/09 06:06:38;;;;;;;3.70;1.02;;;21.60;33.20;;;;;;5029100;28;20415;-74
2022/02/09 06:09:04;;;;;;;6.63;1.08;;;21.60;33.10;;;;;;5033419;28;20413;-76
2022/02/09 06:11:43;;;;;;;4.88;0.93;;;21.50;32.70;;;;;;5033778;28;20391;-74
2022/02/09 06:19:45;;;;;;;4.38;1.00;;;21.50;32.50;;;;;;5034304;28;20446;-75
2022/02/09 06:22:11;;;;;;;3.90;0.98;;;21.50;32.60;;;;;;5034718;28;20383;-76
2022/02/09 06:24:39;;;;;;;6.50;1.07;;;21.50;32.50;;;;;;5034279;28;20394;-76
2022/02/09 06:27:05;;;;;;;3.58;0.82;;;21.50;32.30;;;;;;5034345;28;20496;-74
2022/02/09 06:29:31;;;;;;;2.65;1.00;;;21.50;32.30;;;;;;5033437;28;20452;-74
2022/02/09 06:31:56;;;;;;;4.85;1.00;;;21.40;32.30;;;;;;5033107;28;20409;-75
2022/02/09 06:34:22;;;;;;;4.10;1.03;;;21.40;32.20;;;;;;5034065;28;20830;-76
2022/02/09 06:36:57;;;;;;;4.82;1.15;;;21.40;32.20;;;;;;5033941;28;20902;-75
2022/02/09 06:39:23;;;;;;;3.58;0.90;;;21.40;32.10;;;;;;5034122;28;20855;-67
2022/02/09 06:41:48;;;;;;;3.67;0.90;;;21.40;32.00;;;;;;5033931;28;20414;-71
2022/02/09 06:44:14;;;;;;;3.47;0.77;;;21.40;32.00;;;;;;5034135;28;20859;-73
2022/02/09 06:46:39;;;;;;;3.05;1.10;;;21.40;32.00;;;;;;5033378;28;20496;-72
2022/02/09 06:49:08;;;;;;;2.60;0.90;;;21.40;31.90;;;;;;5033722;28;20962;-68
2022/02/09 06:51:37;;;;;;;2.17;0.70;;;21.40;31.80;;;;;;5034120;28;20921;-76
2022/02/09 06:54:22;;;;;;;1.85;0.90;;;21.40;31.80;;;;;;5034025;28;20374;-75
2022/02/09 07:02:08;;;;;;;3.75;1.25;;;21.40;31.80;;;;;;5028775;28;20490;-69
2022/02/09 07:04:36;;;;;;;2.47;1.05;;;21.40;31.80;;;;;;5033008;28;20482;-69
2022/02/09 07:07:02;;;;;;;1.58;1.08;;;21.40;31.80;;;;;;5032161;28;20422;-68
2022/02/09 07:09:28;;;;;;;2.35;0.90;;;21.40;31.80;;;;;;5033258;28;20414;-68
2022/02/09 07:11:55;;;;;;;1.92;0.70;;;21.30;31.80;;;;;;5033275;28;20416;-67
2022/02/09 07:14:24;;;;;;;2.65;0.88;;;21.30;31.80;;;;;;5032081;28;20479;-69
2022/02/09 07:16:51;;;;;;;2.00;0.70;;;21.30;31.80;;;;;;5032064;28;20403;-73
2022/02/09 07:19:17;;;;;;;1.60;0.80;;;21.30;31.70;;;;;;5032195;28;20426;-76
2022/02/09 07:21:43;;;;;;;2.80;0.97;;;21.30;31.70;;;;;;5033479;28;20429;-76
2022/02/09 07:24:13;;;;;;;1.70;1.00;;;21.30;31.70;;;;;;5033548;28;20391;-74
2022/02/09 07:29:11;;;;;;;2.50;0.90;;;21.30;31.70;;;;;;5033331;28;20383;-74
2022/02/09 07:31:37;;;;;;;3.25;0.90;;;21.30;31.60;;;;;;5033082;28;20529;-68
2022/02/09 07:34:04;;;;;;;2.13;0.90;;;21.30;31.50;;;;;;5031603;28;20859;-76
2022/02/09 07:36:35;;;;;;;2.50;0.88;;;21.30;31.50;;;;;;5031314;28;20929;-67
2022/02/09 07:39:03;;;;;;;3.38;1.00;;;21.30;31.50;;;;;;5032664;28;20413;-67
2022/02/09 07:41:29;;;;;;;2.58;0.85;;;21.30;31.50;;;;;;5031507;28;20404;-67
2022/02/09 07:49:06;;;;;;;3.75;0.95;;;21.30;31.30;;;;;;5032198;28;21049;-72
2022/02/09 07:54:01;;;;;;;2.10;1.10;;;21.40;31.30;;;;;;5032746;28;20387;-68
2022/02/09 07:56:35;;;;;;;6.32;1.05;;;21.40;31.30;;;;;;5031805;28;20886;-70
2022/02/09 07:59:03;;;;;;;1.30;0.80;;;21.40;31.30;;;;;;5030754;28;20433;-69
2022/02/09 08:01:28;;;;;;;1.60;0.70;;;21.40;31.20;;;;;;5032099;28;20486;-68
2022/02/09 08:03:54;;;;;;;1.80;1.03;;;21.50;31.10;;;;;;5032323;28;20478;-69
2022/02/09 08:06:24;;;;;;;1.60;0.90;;;21.50;31.10;;;;;;5030993;28;20928;-69
2022/02/09 08:08:57;;;;;;;1.35;0.80;;;21.50;31.10;;;;;;5032043;28;20403;-68
2022/02/09 08:11:48;;;;;;;1.40;0.80;;;21.50;31.10;;;;;;5032252;28;20395;-68
2022/02/09 08:28:46;;;;;;;1.95;0.90;;;21.70;31.00;;;;;;5031839;28;20967;-71
2022/02/09 08:33:17;;;;;;;3.00;1.15;;;21.80;31.50;;;;;;5031033;28;20457;-67
2022/02/09 08:35:44;;;;;;;2.70;0.77;;;21.80;31.70;;;;;;5028515;28;20401;-67
2022/02/09 08:38:10;;;;;;;3.28;0.95;;;21.90;32.10;;;;;;5029046;28;20414;-67
2022/02/09 08:40:36;;;;;;;3.80;0.90;;;22.00;32.10;;;;;;5029950;28;20414;-67
2022/02/09 08:43:03;;;;;;;3.10;1.20;;;22.00;31.80;;;;;;5028805;28;20894;-67
2022/02/09 08:45:29;;;;;;;2.53;0.83;;;22.10;32.50;;;;;;5026833;28;20420;-67
2022/02/09 08:47:56;;;;;;;4.38;1.20;;;22.20;32.80;;;;;;5030472;28;20410;-68
2022/02/09 08:50:22;;;;;;;2.38;0.80;;;22.20;33.00;;;;;;5029159;28;20744;-68
2022/02/09 08:52:48;;;;;;;2.70;0.90;;;22.20;32.90;;;;;;5028750;28;20405;-67
2022/02/09 08:55:15;;;;;;;2.23;0.90;;;22.30;33.00;;;;;;5030730;28;20860;-67
2022/02/09 08:57:41;;;;;;;1.98;0.82;;;22.30;32.80;;;;;;5029202;28;20391;-68
2022/02/09 09:00:25;;;;;;;1.57;0.77;;;22.30;32.80;;;;;;5029582;28;20790;-69
2022/02/09 09:03:06;;;;;;;1.63;0.65;;;22.30;32.70;;;;;;5027450;28;20446;-78
2022/02/09 09:05:42;;;;;;;1.55;0.80;;;22.30;32.10;;;;;;5030406;28;20553;-78
2022/02/09 09:31:00;;;;;;;1.95;0.80;;;22.50;32.20;;;;;;5031166;28;20394;-69
2022/02/09 10:34:09;;;;;;;2.10;0.70;;;22.80;30.50;;;;;;5034395;28;20479;-67
2022/02/09 10:36:46;;;;;;;2.03;0.70;;;22.80;30.60;;;;;;5032861;28;20516;-66
2022/02/09 10:39:15;;;;;;;1.00;0.60;;;22.80;30.50;;;;;;5033924;28;20426;-66
2022/02/09 10:42:01;;;;;;;1.20;0.73;;;22.80;30.50;;;;;;5034191;28;20882;-78
2022/02/09 10:44:52;;;;;;;8.27;1.23;;;22.80;30.20;;;;;;5034899;28;20371;-78
2022/02/09 10:47:27;;;;;;;4.15;1.00;;;22.70;30.40;;;;;;5034878;28;20427;-81
2022/02/09 10:50:13;;;;;;;4.07;0.90;;;22.70;30.70;;;;;;5034350;28;20383;-79
2022/02/09 10:52:49;;;;;;;3.63;0.93;;;22.70;30.80;;;;;;5032685;28;20922;-78
2022/02/09 10:55:36;;;;;;;1.85;0.82;;;22.70;31.20;;;;;;5031170;28;20404;-80
2022/02/09 10:58:10;;;;;;;4.80;0.93;;;22.70;32.00;;;;;;5034052;28;20399;-80
2022/02/09 11:00:36;;;;;;;2.83;0.90;;;22.70;32.20;;;;;;5033941;28;20379;-78
2022/02/09 11:03:02;;;;;;;3.65;0.77;;;22.70;32.40;;;;;;5032130;28;20400;-70
2022/02/09 11:05:28;;;;;;;1.93;0.80;;;22.70;32.40;;;;;;5032854;28;21015;-70
2022/02/09 11:07:54;;;;;;;5.50;0.80;;;22.70;32.70;;;;;;5032449;28;20470;-69
2022/02/09 11:10:22;;;;;;;2.63;0.90;;;22.80;32.20;;;;;;5025155;28;20970;-75
2022/02/09 11:12:48;;;;;;;3.10;1.08;;;22.70;32.30;;;;;;5032506;28;20399;-75
2022/02/09 11:15:17;;;;;;;1.60;0.80;;;22.70;32.00;;;;;;5033001;28;20898;-73
2022/02/09 11:17:47;;;;;;;2.30;0.70;;;22.70;31.80;;;;;;5033146;28;20450;-75
2022/02/09 11:20:20;;;;;;;1.58;0.75;;;22.70;31.90;;;;;;5032600;28;20769;-78
2022/02/09 11:22:47;;;;;;;2.72;0.88;;;22.70;31.90;;;;;;5030223;28;20411;-69
2022/02/09 11:25:29;;;;;;;1.55;0.63;;;22.70;31.80;;;;;;5031255;28;20482;-71
2022/02/09 11:28:36;;;;;;;2.65;0.70;;;22.80;31.80;;;;;;5031750;28;20403;-78
2022/02/09 11:31:21;;;;;;;5.45;0.82;;;22.80;31.80;;;;;;5032258;28;20387;-74
2022/02/09 11:34:02;;;;;;;3.33;0.70;;;22.80;31.80;;;;;;5035004;28;20487;-79
2022/02/09 11:39:19;;;;;;;2.42;0.70;;;22.80;31.10;;;;;;5031882;28;20936;-74
2022/02/09 11:42:08;;;;;;;1.88;0.68;;;22.90;30.90;;;;;;5032370;28;20403;-79
2022/02/09 11:44:57;;;;;;;1.83;0.70;;;22.90;30.80;;;;;;5015602;28;20749;-74
2022/02/09 11:48:00;;;;;;;1.35;0.68;;;23.00;30.70;;;;;;5029075;28;20924;-79
2022/02/09 12:09:25;;;;;;;2.47;0.65;;;23.10;30.70;;;;;;5033144;28;20383;-71
2022/02/09 12:11:52;;;;;;;1.52;0.60;;;23.20;30.60;;;;;;5031407;28;20395;-72
2022/02/09 12:23:02;;;;;;;1.58;0.70;;;23.30;30.30;;;;;;5032128;28;20515;-70
2022/02/09 12:25:45;;;;;;;3.03;0.75;;;23.30;30.30;;;;;;5031188;28;20415;-71
2022/02/09 12:28:19;;;;;;;1.05;0.70;;;23.30;30.20;;;;;;5031158;28;20402;-69
2022/02/09 12:30:46;;;;;;;1.20;0.60;;;23.30;30.30;;;;;;5031703;28;20418;-69
2022/02/09 12:33:24;;;;;;;2.80;0.90;;;23.30;30.20;;;;;;5032220;28;20395;-69
2022/02/09 12:35:51;;;;;;;2.22;0.60;;;23.30;30.30;;;;;;5032226;28;20390;-68
2022/02/09 12:38:30;;;;;;;1.50;0.70;;;23.30;30.20;;;;;;5030321;28;20410;-69
2022/02/09 12:41:20;;;;;;;1.70;0.60;;;23.30;30.20;;;;;;5030697;28;20399;-68
2022/02/09 12:43:52;;;;;;;1.98;0.80;;;23.30;30.20;;;;;;5030761;28;20387;-69
2022/02/09 12:46:20;;;;;;;1.77;0.87;;;23.30;30.20;;;;;;5031922;28;20459;-76
2022/02/09 12:48:46;;;;;;;1.35;0.60;;;23.30;30.20;;;;;;5031891;28;20398;-71
2022/02/09 12:51:25;;;;;;;1.70;0.60;;;23.20;30.20;;;;;;5030230;28;20395;-67
2022/02/09 12:53:51;;;;;;;1.80;0.68;;;23.20;30.30;;;;;;5030347;28;20943;-69
2022/02/09 12:56:32;;;;;;;3.42;0.77;;;23.20;30.30;;;;;;5031030;28;20449;-67
2022/02/09 12:59:14;;;;;;;3.20;0.70;;;23.20;30.40;;;;;;5028004;28;20482;-67
2022/02/09 13:01:50;;;;;;;4.40;0.90;;;23.20;30.40;;;;;;5031064;28;20398;-67
2022/02/09 13:04:33;;;;;;;4.03;0.80;;;23.30;30.40;;;;;;5022651;28;20383;-78
2022/02/09 13:07:01;;;;;;;1.90;0.70;;;23.30;30.50;;;;;;5024834;28;20427;-75
2022/02/09 13:09:27;;;;;;;2.53;0.77;;;23.30;30.50;;;;;;5027153;28;20527;-73
2022/02/09 13:11:54;;;;;;;5.30;0.77;;;23.30;30.60;;;;;;5023101;28;20530;-73
2022/02/09 13:14:45;;;;;;;3.05;0.80;;;23.30;30.40;;;;;;5027082;28;20463;-76
2022/02/09 13:17:40;;;;;;;3.53;0.98;;;23.40;30.40;;;;;;5033382;28;20390;-72
2022/02/09 14:03:49;;;;;;;1.25;0.50;;;23.60;30.00;;;;;;5034216;28;20565;-75
2022/02/09 14:13:42;;;;;;;1.92;0.60;;;23.70;30.50;;;;;;5033200;28;20879;-68
2022/02/09 14:19:10;;;;;;;0.77;0.40;;;23.70;30.00;;;;;;5033662;28;20453;-74
2022/02/09 14:57:12;;;;;;;3.45;0.70;;;23.80;30.00;;;;;;5032689;28;20402;-69
2022/02/09 15:02:13;;;;;;;6.07;1.20;;;23.80;30.00;;;;;;5033942;28;20562;-72
2022/02/09 15:05:08;;;;;;;5.03;0.80;;;23.80;30.10;;;;;;5021849;28;20420;-76
2022/02/09 15:12:51;;;;;;;5.32;0.80;;;23.90;29.90;;;;;;5033438;28;20485;-72
2022/02/09 15:20:44;;;;;;;2.93;0.63;;;23.90;30.00;;;;;;5033261;28;20437;-77
2022/02/09 15:23:11;;;;;;;1.95;0.70;;;23.90;29.90;;;;;;5033515;28;20902;-73
2022/02/09 15:25:37;;;;;;;2.67;0.65;;;23.80;30.00;;;;;;5033200;28;20506;-78
2022/02/09 15:28:04;;;;;;;2.80;0.77;;;23.80;30.00;;;;;;5032368;28;20524;-73
2022/02/09 15:30:37;;;;;;;2.85;0.60;;;23.80;29.90;;;;;;5033026;28;20394;-77
2022/02/09 15:33:04;;;;;;;1.70;0.68;;;23.80;30.00;;;;;;5032533;28;20404;-77
2022/02/09 15:38:08;;;;;;;1.63;0.70;;;23.80;30.00;;;;;;5033368;28;20415;-74
2022/02/09 15:40:42;;;;;;;2.13;0.60;;;23.80;29.90;;;;;;5033257;28;20383;-77
2022/02/09 16:23:23;;;;;;;6.78;1.30;;;25.00;31.70;;;;;;5031450;28;20744;-68
2022/02/09 16:45:03;;;;;;;6.97;1.17;;;25.00;31.20;;;;;;5019385;28;20573;-70
2022/02/09 16:48:14;;;;;;;7.95;0.88;;;25.00;32.00;;;;;;5031476;28;20477;-77
2022/02/09 16:50:24;;;;;;;5.78;0.90;;;25.00;31.50;;;;;;5027712;28;20399;-71
2022/02/09 16:53:06;;;;;;;9.00;1.08;;;25.00;31.60;;;;;;5031462;28;20450;-68
2022/02/09 17:19:39;;;;;;;6.90;2.42;;;25.00;32.50;;;;;;5027920;28;20378;-76
2022/02/09 17:22:06;;;;;;;8.87;3.20;;;24.90;31.50;;;;;;5012687;28;20480;-75
2022/02/09 17:24:32;;;;;;;10.13;3.10;;;24.70;32.30;;;;;;5043648;28;20432;-76
2022/02/09 17:26:57;;;;;;;8.90;2.97;;;24.60;33.10;;;;;;5025983;28;21083;-77
2022/02/09 17:32:24;;;;;;;8.57;3.40;;;24.70;31.90;;;;;;5030066;28;20419;-70
2022/02/09 17:35:01;;;;;;;8.98;2.80;;;24.70;32.80;;;;;;5027450;28;20406;-69
2022/02/09 17:38:02;;;;;;;6.60;2.75;;;24.70;32.50;;;;;;5027132;28;20438;-66
2022/02/09 17:53:59;;;;;;;6.05;2.17;;;24.70;32.30;;;;;;5024575;28;20433;-72
2022/02/09 17:56:27;;;;;;;5.53;2.10;;;24.80;36.10;;;;;;5021479;28;20421;-75
2022/02/09 17:58:53;;;;;;;3.65;1.80;;;24.80;36.90;;;;;;5011543;28;20454;-79
2022/02/09 18:01:20;;;;;;;5.40;1.80;;;24.90;36.10;;;;;;5012285;28;20851;-78
2022/02/09 18:03:46;;;;;;;3.47;1.42;;;24.90;38.00;;;;;;5013003;28;20908;-76
2022/02/09 18:06:18;;;;;;;7.40;2.00;;;24.90;37.70;;;;;;5026525;28;20485;-76
2022/02/09 18:08:54;;;;;;;4.88;1.50;;;25.00;39.40;;;;;;5034895;28;20395;-71
2022/02/09 18:27:48;;;;;;;5.83;1.87;;;24.70;37.90;;;;;;5033050;28;20418;-76
2022/02/09 18:38:55;;;;;;;5.68;1.90;;;24.60;36.50;;;;;;5031240;28;20508;-70
2022/02/09 18:44:03;;;;;;;6.95;1.75;;;24.50;35.60;;;;;;5034638;28;20482;-74
2022/02/09 18:57:07;;;;;;;3.00;1.63;;;24.50;34.30;;;;;;5016837;28;20457;-69
2022/02/09 18:59:51;;;;;;;3.42;1.63;;;24.40;33.40;;;;;;5034571;28;20498;-69
2022/02/09 19:05:32;;;;;;;3.35;1.40;;;24.30;33.60;;;;;;5032649;28;20454;-65
2022/02/09 19:16:06;;;;;;;3.70;1.38;;;24.20;32.80;;;;;;5031702;28;20461;-66
2022/02/09 19:26:18;;;;;;;4.45;1.42;;;24.20;33.10;;;;;;5032483;28;20798;-67
2022/02/09 19:26:52;;;;;;;4.57;1.50;;;24.30;34.60;;;;;;5031585;28;20450;-76
2022/02/09 19:45:48;;;;;;;7.55;2.50;;;24.40;41.00;;;;;;5028911;28;20410;-76
2022/02/09 19:48:13;;;;;;;19.57;5.83;;;24.40;39.70;;;;;;5030072;28;20460;-71
2022/02/09 19:51:05;;;;;;;11.02;3.72;;;24.40;39.40;;;;;;5018450;28;20464;-65
2022/02/09 19:54:12;;;;;;;12.60;3.70;;;24.30;38.90;;;;;;5019421;28;20384;-67
2022/02/09 19:56:26;;;;;;;9.18;4.00;;;24.30;38.20;;;;;;5023359;28;20500;-67
2022/02/09 20:01:19;;;;;;;14.23;4.40;;;24.20;37.60;;;;;;5025271;28;20391;-68
2022/02/09 20:03:45;;;;;;;14.02;4.45;;;24.20;37.20;;;;;;5025839;28;20965;-65
2022/02/09 20:06:11;;;;;;;11.52;4.20;;;24.20;37.00;;;;;;5024107;28;20415;-68
2022/02/09 20:08:38;;;;;;;8.40;3.20;;;24.20;36.40;;;;;;5023905;28;20457;-72
2022/02/09 20:11:05;;;;;;;8.98;2.97;;;24.20;36.10;;;;;;5023930;28;20395;-65
2022/02/09 20:13:31;;;;;;;7.20;2.95;;;24.20;34.60;;;;;;5025724;28;20744;-70
2022/02/09 20:15:59;;;;;;;8.90;3.38;;;24.30;34.60;;;;;;5023961;28;20395;-67
2022/02/09 20:18:26;;;;;;;9.32;3.42;;;24.30;35.30;;;;;;5038761;28;20421;-67
2022/02/09 20:20:54;;;;;;;11.50;3.47;;;24.30;34.40;;;;;;5025232;28;20402;-65
2022/02/09 20:23:19;;;;;;;10.68;3.67;;;24.30;36.00;;;;;;5022166;28;20390;-69
2022/02/09 20:25:45;;;;;;;10.70;4.18;;;24.30;36.00;;;;;;5012127;28;20428;-65
2022/02/09 20:28:11;;;;;;;11.32;3.38;;;24.30;36.00;;;;;;5022974;28;20483;-64
2022/02/09 20:30:42;;;;;;;7.07;3.27;;;24.30;36.00;;;;;;5018442;28;20485;-65
2022/02/09 20:33:13;;;;;;;7.80;3.15;;;24.30;35.20;;;;;;5027538;28;20401;-73
2022/02/09 20:35:39;;;;;;;9.20;2.92;;;24.20;34.70;;;;;;5024947;28;20399;-66
2022/02/09 20:38:07;;;;;;;8.10;3.23;;;24.30;35.50;;;;;;5023898;28;20407;-66
2022/02/09 20:40:38;;;;;;;8.88;3.00;;;24.30;35.20;;;;;;5023410;28;20402;-67
2022/02/09 20:43:06;;;;;;;7.05;3.13;;;24.30;34.50;;;;;;5026453;28;20386;-68
2022/02/09 20:45:46;;;;;;;7.35;2.95;;;24.20;34.40;;;;;;5023057;28;21218;-64
2022/02/09 20:48:15;;;;;;;10.10;3.25;;;24.20;34.10;;;;;;5027100;28;21008;-69
2022/02/09 20:50:42;;;;;;;6.88;2.80;;;24.20;34.90;;;;;;5029551;28;20899;-69
2022/02/09 20:53:08;;;;;;;10.00;3.20;;;24.20;35.00;;;;;;5030388;28;20489;-74
2022/02/09 20:55:34;;;;;;;6.40;2.97;;;24.20;35.00;;;;;;5030210;28;20442;-64
2022/02/09 20:58:01;;;;;;;5.88;2.88;;;24.10;34.60;;;;;;5029114;28;20387;-65
2022/02/09 21:00:39;;;;;;;5.20;2.75;;;24.10;34.40;;;;;;5029614;28;20388;-76
2022/02/09 21:10:56;;;;;;;5.45;2.20;;;24.00;33.90;;;;;;5030819;28;20387;-68
2022/02/09 21:18:38;;;;;;;4.25;2.10;;;24.00;33.80;;;;;;5031846;28;20394;-67
2022/02/09 21:21:38;;;;;;;4.78;1.65;;;24.00;32.60;;;;;;5029032;28;20391;-68
2022/02/09 21:54:26;;;;;;;4.43;1.67;;;23.70;32.30;;;;;;5013931;28;20392;-73
2022/02/09 21:57:15;;;;;;;3.45;1.70;;;23.70;32.00;;;;;;5015862;28;20550;-76
2022/02/09 22:48:38;;;;;;;2.00;1.30;;;23.50;31.60;;;;;;5033361;28;20437;-76
2022/02/09 22:56:32;;;;;;;2.55;1.30;;;23.40;31.70;;;;;;5033932;28;20521;-75
2022/02/09 22:59:00;;;;;;;1.70;1.30;;;23.30;32.30;;;;;;5033772;28;20954;-76
2022/02/09 23:01:41;;;;;;;1.75;1.15;;;23.30;31.80;;;;;;5032112;28;20398;-76
2022/02/09 23:09:33;;;;;;;2.10;1.10;;;23.30;31.70;;;;;;5033786;28;20902;-71
2022/02/09 23:17:33;;;;;;;1.55;1.10;;;23.20;31.60;;;;;;5033625;28;20441;-76
